sensor_id;sensor_type;location;lat;lon;timestamp;temperature;humidity
28177;DHT22;15461;41.652;9.378;2022-09-28T00:02:05;19.60;99.90
28177;DHT22;15461;41.652;9.378;2022-09-28T00:04:31;19.60;99.90
28177;DHT22;15461;41.652;9.378;2022-09-28T00:07:00;19.60;99.90
28177;DHT22;15461;41.652;9.378;2022-09-28T00:09:26;19.50;99.90
28177;DHT22;15461;41.652;9.378;2022-09-28T00:11:52;19.50;99.90
28177;DHT22;15461;41.652;9.378;2022-09-28T00:14:22;19.50;99.90
28177;DHT22;15461;41.652;9.378;2022-09-28T00:16:48;19.50;99.90
28177;DHT22;15461;41.652;9.378;2022-09-28T00:19:14;19.50;99.90
28177;DHT22;15461;41.652;9.378;2022-09-28T00:21:40;19.50;99.90
28177;DHT22;15461;41.652;9.378;2022-09-28T00:24:10;19.50;99.90
28177;DHT22;15461;41.652;9.378;2022-09-28T00:26:49;19.60;99.90
28177;DHT22;15461;41.652;9.378;2022-09-28T00:31:44;19.50;99.90
28177;DHT22;15461;41.652;9.378;2022-09-28T00:34:11;19.50;99.90
28177;DHT22;15461;41.652;9.378;2022-09-28T00:36:37;19.50;99.90
28177;DHT22;15461;41.652;9.378;2022-09-28T00:39:07;19.50;99.90
28177;DHT22;15461;41.652;9.378;2022-09-28T00:41:37;19.40;99.90
28177;DHT22;15461;41.652;9.378;2022-09-28T00:49:22;19.50;99.90
28177;DHT22;15461;41.652;9.378;2022-09-28T00:51:53;19.50;99.90
28177;DHT22;15461;41.652;9.378;2022-09-28T00:54:20;19.50;99.90
28177;DHT22;15461;41.652;9.378;2022-09-28T00:56:47;19.40;99.90
28177;DHT22;15461;41.652;9.378;2022-09-28T00:59:14;19.40;99.90
28177;DHT22;15461;41.652;9.378;2022-09-28T01:01:40;19.40;99.90
28177;DHT22;15461;41.652;9.378;2022-09-28T01:04:06;19.40;99.90
28177;DHT22;15461;41.652;9.378;2022-09-28T01:06:34;19.30;99.90
28177;DHT22;15461;41.652;9.378;2022-09-28T01:09:03;19.30;99.90
28177;DHT22;15461;41.652;9.378;2022-09-28T01:11:31;19.30;99.90
28177;DHT22;15461;41.652;9.378;2022-09-28T01:14:00;19.20;99.90
28177;DHT22;15461;41.652;9.378;2022-09-28T01:16:36;19.20;99.90
28177;DHT22;15461;41.652;9.378;2022-09-28T01:25:20;19.20;99.90
28177;DHT22;15461;41.652;9.378;2022-09-28T01:27:42;19.20;99.90
28177;DHT22;15461;41.652;9.378;2022-09-28T01:30:17;19.20;99.90
28177;DHT22;15461;41.652;9.378;2022-09-28T01:32:54;19.30;99.90
28177;DHT22;15461;41.652;9.378;2022-09-28T01:35:34;19.40;99.90
28177;DHT22;15461;41.652;9.378;2022-09-28T01:38:11;19.40;99.90
28177;DHT22;15461;41.652;9.378;2022-09-28T01:40:39;19.40;99.90
28177;DHT22;15461;41.652;9.378;2022-09-28T01:43:10;19.40;99.90
28177;DHT22;15461;41.652;9.378;2022-09-28T01:45:47;19.40;99.90
28177;DHT22;15461;41.652;9.378;2022-09-28T01:48:22;19.40;99.90
28177;DHT22;15461;41.652;9.378;2022-09-28T01:50:52;19.40;99.90
28177;DHT22;15461;41.652;9.378;2022-09-28T01:53:24;19.40;99.90
28177;DHT22;15461;41.652;9.378;2022-09-28T01:55:59;19.50;99.90
28177;DHT22;15461;41.652;9.378;2022-09-28T01:58:42;19.60;99.90
28177;DHT22;15461;41.652;9.378;2022-09-28T02:01:22;19.60;99.90
28177;DHT22;15461;41.652;9.378;2022-09-28T02:03:59;19.50;99.90
28177;DHT22;15461;41.652;9.378;2022-09-28T02:06:32;19.50;99.90
28177;DHT22;15461;41.652;9.378;2022-09-28T02:12:24;19.50;99.90
28177;DHT22;15461;41.652;9.378;2022-09-28T02:14:54;19.50;99.90
28177;DHT22;15461;41.652;9.378;2022-09-28T02:17:24;19.50;99.90
28177;DHT22;15461;41.652;9.378;2022-09-28T02:19:50;19.50;99.90
28177;DHT22;15461;41.652;9.378;2022-09-28T02:28:03;19.50;99.90
28177;DHT22;15461;41.652;9.378;2022-09-28T02:30:30;19.50;99.90
28177;DHT22;15461;41.652;9.378;2022-09-28T02:35:40;19.50;99.90
28177;DHT22;15461;41.652;9.378;2022-09-28T02:38:08;19.50;99.90
28177;DHT22;15461;41.652;9.378;2022-09-28T02:40:35;19.50;99.90
28177;DHT22;15461;41.652;9.378;2022-09-28T02:45:58;19.40;99.90
28177;DHT22;15461;41.652;9.378;2022-09-28T02:48:39;19.50;99.90
28177;DHT22;15461;41.652;9.378;2022-09-28T02:51:22;19.40;99.90
28177;DHT22;15461;41.652;9.378;2022-09-28T03:00:21;19.50;99.90
28177;DHT22;15461;41.652;9.378;2022-09-28T03:02:53;19.50;99.90
28177;DHT22;15461;41.652;9.378;2022-09-28T03:10:23;19.50;99.90
28177;DHT22;15461;41.652;9.378;2022-09-28T03:12:50;19.40;99.90
28177;DHT22;15461;41.652;9.378;2022-09-28T03:15:22;19.40;99.90
28177;DHT22;15461;41.652;9.378;2022-09-28T03:17:48;19.40;99.90
28177;DHT22;15461;41.652;9.378;2022-09-28T03:20:14;19.40;99.90
28177;DHT22;15461;41.652;9.378;2022-09-28T03:22:40;19.40;99.90
28177;DHT22;15461;41.652;9.378;2022-09-28T03:25:07;19.40;99.90
28177;DHT22;15461;41.652;9.378;2022-09-28T03:27:35;19.40;99.90
28177;DHT22;15461;41.652;9.378;2022-09-28T03:30:02;19.50;99.90
28177;DHT22;15461;41.652;9.378;2022-09-28T03:32:28;19.40;99.90
28177;DHT22;15461;41.652;9.378;2022-09-28T03:34:54;19.40;99.90
28177;DHT22;15461;41.652;9.378;2022-09-28T03:37:20;19.40;99.90
28177;DHT22;15461;41.652;9.378;2022-09-28T03:39:47;19.40;99.90
28177;DHT22;15461;41.652;9.378;2022-09-28T03:42:13;19.50;99.90
28177;DHT22;15461;41.652;9.378;2022-09-28T03:44:44;19.50;99.90
28177;DHT22;15461;41.652;9.378;2022-09-28T03:47:11;19.60;99.90
28177;DHT22;15461;41.652;9.378;2022-09-28T03:49:38;19.60;99.90
28177;DHT22;15461;41.652;9.378;2022-09-28T03:52:04;19.60;99.90
28177;DHT22;15461;41.652;9.378;2022-09-28T03:54:30;19.60;99.90
28177;DHT22;15461;41.652;9.378;2022-09-28T03:56:57;19.60;99.90
28177;DHT22;15461;41.652;9.378;2022-09-28T03:59:23;19.60;99.90
28177;DHT22;15461;41.652;9.378;2022-09-28T04:01:49;19.60;99.90
28177;DHT22;15461;41.652;9.378;2022-09-28T04:04:15;19.60;99.90
28177;DHT22;15461;41.652;9.378;2022-09-28T04:06:42;19.70;99.90
28177;DHT22;15461;41.652;9.378;2022-09-28T04:09:08;19.70;99.90
28177;DHT22;15461;41.652;9.378;2022-09-28T04:11:34;19.70;99.90
28177;DHT22;15461;41.652;9.378;2022-09-28T04:14:00;19.70;99.90
28177;DHT22;15461;41.652;9.378;2022-09-28T04:16:27;19.80;99.90
28177;DHT22;15461;41.652;9.378;2022-09-28T04:19:04;19.90;99.90
28177;DHT22;15461;41.652;9.378;2022-09-28T04:22:00;19.90;99.90
28177;DHT22;15461;41.652;9.378;2022-09-28T04:24:26;19.90;99.90
28177;DHT22;15461;41.652;9.378;2022-09-28T04:26:52;20.00;99.90
28177;DHT22;15461;41.652;9.378;2022-09-28T04:29:38;19.90;99.90
28177;DHT22;15461;41.652;9.378;2022-09-28T04:32:09;20.00;99.90
28177;DHT22;15461;41.652;9.378;2022-09-28T04:34:37;20.00;99.90
28177;DHT22;15461;41.652;9.378;2022-09-28T04:37:03;20.00;99.90
28177;DHT22;15461;41.652;9.378;2022-09-28T04:39:29;20.00;99.90
28177;DHT22;15461;41.652;9.378;2022-09-28T04:41:55;20.00;99.90
28177;DHT22;15461;41.652;9.378;2022-09-28T04:44:21;20.00;99.90
28177;DHT22;15461;41.652;9.378;2022-09-28T04:46:51;19.90;99.90
28177;DHT22;15461;41.652;9.378;2022-09-28T04:49:29;20.00;99.90
28177;DHT22;15461;41.652;9.378;2022-09-28T04:52:04;20.00;99.90
28177;DHT22;15461;41.652;9.378;2022-09-28T04:54:32;20.00;99.90
28177;DHT22;15461;41.652;9.378;2022-09-28T04:56:58;20.10;99.90
28177;DHT22;15461;41.652;9.378;2022-09-28T04:59:24;20.00;99.90
28177;DHT22;15461;41.652;9.378;2022-09-28T05:01:50;20.00;99.90
28177;DHT22;15461;41.652;9.378;2022-09-28T05:04:36;20.00;99.90
28177;DHT22;15461;41.652;9.378;2022-09-28T05:07:21;20.00;99.90
28177;DHT22;15461;41.652;9.378;2022-09-28T05:09:47;20.00;99.90
28177;DHT22;15461;41.652;9.378;2022-09-28T05:12:14;20.10;99.90
28177;DHT22;15461;41.652;9.378;2022-09-28T05:14:39;20.10;99.90
28177;DHT22;15461;41.652;9.378;2022-09-28T05:17:06;20.10;99.90
28177;DHT22;15461;41.652;9.378;2022-09-28T05:19:47;20.10;99.90
28177;DHT22;15461;41.652;9.378;2022-09-28T05:22:13;20.10;99.90
28177;DHT22;15461;41.652;9.378;2022-09-28T05:24:43;20.10;99.90
28177;DHT22;15461;41.652;9.378;2022-09-28T05:27:11;20.20;99.90
28177;DHT22;15461;41.652;9.378;2022-09-28T05:29:37;20.10;99.90
28177;DHT22;15461;41.652;9.378;2022-09-28T05:32:41;20.10;99.90
28177;DHT22;15461;41.652;9.378;2022-09-28T05:35:27;20.10;99.90
28177;DHT22;15461;41.652;9.378;2022-09-28T05:37:54;20.20;99.90
28177;DHT22;15461;41.652;9.378;2022-09-28T05:40:21;20.30;99.90
28177;DHT22;15461;41.652;9.378;2022-09-28T05:42:47;20.20;99.90
28177;DHT22;15461;41.652;9.378;2022-09-28T05:45:13;20.20;99.90
28177;DHT22;15461;41.652;9.378;2022-09-28T05:47:42;20.20;99.90
28177;DHT22;15461;41.652;9.378;2022-09-28T05:50:13;20.20;99.90
28177;DHT22;15461;41.652;9.378;2022-09-28T05:52:41;20.20;99.90
28177;DHT22;15461;41.652;9.378;2022-09-28T05:55:09;20.30;99.90
28177;DHT22;15461;41.652;9.378;2022-09-28T05:57:36;20.30;99.90
28177;DHT22;15461;41.652;9.378;2022-09-28T06:00:06;20.40;99.90
28177;DHT22;15461;41.652;9.378;2022-09-28T06:03:06;20.40;99.90
28177;DHT22;15461;41.652;9.378;2022-09-28T06:05:34;20.50;99.90
28177;DHT22;15461;41.652;9.378;2022-09-28T06:08:01;20.60;99.90
28177;DHT22;15461;41.652;9.378;2022-09-28T06:10:27;20.60;99.90
28177;DHT22;15461;41.652;9.378;2022-09-28T06:12:58;20.70;99.90
28177;DHT22;15461;41.652;9.378;2022-09-28T06:15:25;20.70;99.90
28177;DHT22;15461;41.652;9.378;2022-09-28T06:17:58;20.70;99.90
28177;DHT22;15461;41.652;9.378;2022-09-28T06:20:37;20.70;99.90
28177;DHT22;15461;41.652;9.378;2022-09-28T06:23:25;20.80;99.90
28177;DHT22;15461;41.652;9.378;2022-09-28T06:25:53;20.70;99.90
28177;DHT22;15461;41.652;9.378;2022-09-28T06:28:19;20.70;99.90
28177;DHT22;15461;41.652;9.378;2022-09-28T06:30:45;20.70;99.90
28177;DHT22;15461;41.652;9.378;2022-09-28T06:33:15;20.70;99.90
28177;DHT22;15461;41.652;9.378;2022-09-28T06:35:41;20.60;99.90
28177;DHT22;15461;41.652;9.378;2022-09-28T06:38:07;20.60;99.90
28177;DHT22;15461;41.652;9.378;2022-09-28T06:40:33;20.60;99.90
28177;DHT22;15461;41.652;9.378;2022-09-28T06:43:02;20.60;99.90
28177;DHT22;15461;41.652;9.378;2022-09-28T06:45:51;20.50;99.90
28177;DHT22;15461;41.652;9.378;2022-09-28T06:48:36;20.50;99.90
28177;DHT22;15461;41.652;9.378;2022-09-28T06:51:04;20.50;99.90
28177;DHT22;15461;41.652;9.378;2022-09-28T06:53:48;20.60;99.90
28177;DHT22;15461;41.652;9.378;2022-09-28T06:56:38;20.50;99.90
28177;DHT22;15461;41.652;9.378;2022-09-28T06:59:04;20.50;99.90
28177;DHT22;15461;41.652;9.378;2022-09-28T07:01:33;20.50;99.90
28177;DHT22;15461;41.652;9.378;2022-09-28T07:04:22;20.40;99.90
28177;DHT22;15461;41.652;9.378;2022-09-28T07:07:08;20.50;99.90
28177;DHT22;15461;41.652;9.378;2022-09-28T07:10:09;20.40;99.90
28177;DHT22;15461;41.652;9.378;2022-09-28T07:13:01;20.40;99.90
28177;DHT22;15461;41.652;9.378;2022-09-28T07:15:47;20.40;99.90
28177;DHT22;15461;41.652;9.378;2022-09-28T07:18:14;20.40;99.90
28177;DHT22;15461;41.652;9.378;2022-09-28T07:20:43;20.40;99.90
28177;DHT22;15461;41.652;9.378;2022-09-28T07:23:09;20.50;99.90
28177;DHT22;15461;41.652;9.378;2022-09-28T07:25:56;20.50;99.90
28177;DHT22;15461;41.652;9.378;2022-09-28T07:28:42;20.50;99.90
28177;DHT22;15461;41.652;9.378;2022-09-28T07:31:27;20.40;99.90
28177;DHT22;15461;41.652;9.378;2022-09-28T07:34:11;20.40;99.90
28177;DHT22;15461;41.652;9.378;2022-09-28T07:37:12;20.40;99.90
28177;DHT22;15461;41.652;9.378;2022-09-28T07:39:39;20.40;99.90
28177;DHT22;15461;41.652;9.378;2022-09-28T07:42:25;20.30;99.90
28177;DHT22;15461;41.652;9.378;2022-09-28T07:44:58;20.30;99.90
28177;DHT22;15461;41.652;9.378;2022-09-28T07:47:24;20.30;99.90
28177;DHT22;15461;41.652;9.378;2022-09-28T07:50:15;20.30;99.90
28177;DHT22;15461;41.652;9.378;2022-09-28T07:52:57;20.30;99.90
28177;DHT22;15461;41.652;9.378;2022-09-28T07:55:37;20.30;99.90
28177;DHT22;15461;41.652;9.378;2022-09-28T07:58:09;20.40;99.90
28177;DHT22;15461;41.652;9.378;2022-09-28T08:01:06;20.40;99.90
28177;DHT22;15461;41.652;9.378;2022-09-28T08:03:34;20.40;99.90
28177;DHT22;15461;41.652;9.378;2022-09-28T08:06:03;20.40;99.90
28177;DHT22;15461;41.652;9.378;2022-09-28T08:08:29;20.40;99.90
28177;DHT22;15461;41.652;9.378;2022-09-28T08:10:56;20.40;99.90
28177;DHT22;15461;41.652;9.378;2022-09-28T08:13:42;20.40;99.90
28177;DHT22;15461;41.652;9.378;2022-09-28T08:16:29;20.40;99.90
28177;DHT22;15461;41.652;9.378;2022-09-28T08:19:21;20.40;99.90
28177;DHT22;15461;41.652;9.378;2022-09-28T08:21:48;20.50;99.90
28177;DHT22;15461;41.652;9.378;2022-09-28T08:24:15;20.50;99.90
28177;DHT22;15461;41.652;9.378;2022-09-28T08:26:42;20.60;99.90
28177;DHT22;15461;41.652;9.378;2022-09-28T08:29:10;20.60;99.90
28177;DHT22;15461;41.652;9.378;2022-09-28T08:31:48;20.70;99.90
28177;DHT22;15461;41.652;9.378;2022-09-28T08:34:28;20.70;99.90
28177;DHT22;15461;41.652;9.378;2022-09-28T08:37:17;20.70;99.90
28177;DHT22;15461;41.652;9.378;2022-09-28T08:40:02;20.80;99.90
28177;DHT22;15461;41.652;9.378;2022-09-28T08:43:05;20.90;99.90
28177;DHT22;15461;41.652;9.378;2022-09-28T08:45:56;20.90;99.90
28177;DHT22;15461;41.652;9.378;2022-09-28T08:51:55;21.00;99.90
28177;DHT22;15461;41.652;9.378;2022-09-28T08:55:10;21.00;99.90
28177;DHT22;15461;41.652;9.378;2022-09-28T09:00:47;21.10;99.90
28177;DHT22;15461;41.652;9.378;2022-09-28T09:03:20;21.00;99.90
28177;DHT22;15461;41.652;9.378;2022-09-28T09:14:38;20.80;99.90
28177;DHT22;15461;41.652;9.378;2022-09-28T09:23:03;20.90;99.90
28177;DHT22;15461;41.652;9.378;2022-09-28T09:25:47;21.10;99.90
28177;DHT22;15461;41.652;9.378;2022-09-28T09:33:37;21.40;99.90
28177;DHT22;15461;41.652;9.378;2022-09-28T09:36:42;21.60;99.90
28177;DHT22;15461;41.652;9.378;2022-09-28T09:39:41;21.60;99.90
28177;DHT22;15461;41.652;9.378;2022-09-28T09:48:59;21.70;99.90
28177;DHT22;15461;41.652;9.378;2022-09-28T09:51:43;21.70;99.90
28177;DHT22;15461;41.652;9.378;2022-09-28T09:54:22;21.80;99.90
28177;DHT22;15461;41.652;9.378;2022-09-28T09:57:05;21.80;99.90
28177;DHT22;15461;41.652;9.378;2022-09-28T09:59:59;21.90;99.90
28177;DHT22;15461;41.652;9.378;2022-09-28T10:02:53;22.00;99.90
28177;DHT22;15461;41.652;9.378;2022-09-28T10:05:38;22.10;99.90
28177;DHT22;15461;41.652;9.378;2022-09-28T10:08:16;22.20;99.90
28177;DHT22;15461;41.652;9.378;2022-09-28T10:10:55;22.10;99.90
28177;DHT22;15461;41.652;9.378;2022-09-28T10:13:27;22.10;99.90
28177;DHT22;15461;41.652;9.378;2022-09-28T10:15:55;22.00;99.90
28177;DHT22;15461;41.652;9.378;2022-09-28T10:18:31;22.10;99.90
28177;DHT22;15461;41.652;9.378;2022-09-28T10:21:14;22.10;99.90
28177;DHT22;15461;41.652;9.378;2022-09-28T10:24:01;22.10;99.90
28177;DHT22;15461;41.652;9.378;2022-09-28T10:26:34;22.10;99.90
28177;DHT22;15461;41.652;9.378;2022-09-28T10:29:11;22.20;99.90
28177;DHT22;15461;41.652;9.378;2022-09-28T10:31:46;22.20;99.90
28177;DHT22;15461;41.652;9.378;2022-09-28T10:34:26;22.30;99.90
28177;DHT22;15461;41.652;9.378;2022-09-28T10:36:56;22.30;99.90
28177;DHT22;15461;41.652;9.378;2022-09-28T10:39:45;22.30;99.90
28177;DHT22;15461;41.652;9.378;2022-09-28T10:42:17;22.30;99.90
28177;DHT22;15461;41.652;9.378;2022-09-28T10:45:19;22.30;99.90
28177;DHT22;15461;41.652;9.378;2022-09-28T10:47:47;22.30;99.90
28177;DHT22;15461;41.652;9.378;2022-09-28T10:50:26;22.40;99.90
28177;DHT22;15461;41.652;9.378;2022-09-28T10:53:18;22.40;99.90
28177;DHT22;15461;41.652;9.378;2022-09-28T10:56:19;22.40;99.90
28177;DHT22;15461;41.652;9.378;2022-09-28T10:58:48;22.40;99.90
28177;DHT22;15461;41.652;9.378;2022-09-28T11:01:25;22.40;99.90
28177;DHT22;15461;41.652;9.378;2022-09-28T11:03:58;22.30;99.90
28177;DHT22;15461;41.652;9.378;2022-09-28T11:06:27;22.30;99.90
28177;DHT22;15461;41.652;9.378;2022-09-28T11:08:56;22.30;99.90
28177;DHT22;15461;41.652;9.378;2022-09-28T11:11:23;22.30;99.90
28177;DHT22;15461;41.652;9.378;2022-09-28T11:14:01;22.30;99.90
28177;DHT22;15461;41.652;9.378;2022-09-28T11:16:33;22.30;99.90
28177;DHT22;15461;41.652;9.378;2022-09-28T11:19:27;22.20;99.90
28177;DHT22;15461;41.652;9.378;2022-09-28T11:21:56;22.20;99.90
28177;DHT22;15461;41.652;9.378;2022-09-28T11:24:31;22.20;99.90
28177;DHT22;15461;41.652;9.378;2022-09-28T11:27:01;22.20;99.90
28177;DHT22;15461;41.652;9.378;2022-09-28T11:29:40;22.10;99.90
28177;DHT22;15461;41.652;9.378;2022-09-28T11:32:43;22.10;99.90
28177;DHT22;15461;41.652;9.378;2022-09-28T11:35:27;22.10;99.90
28177;DHT22;15461;41.652;9.378;2022-09-28T11:38:30;22.10;99.90
28177;DHT22;15461;41.652;9.378;2022-09-28T11:41:51;22.20;99.90
28177;DHT22;15461;41.652;9.378;2022-09-28T11:50:20;22.10;99.90
28177;DHT22;15461;41.652;9.378;2022-09-28T11:55:26;22.10;99.90
28177;DHT22;15461;41.652;9.378;2022-09-28T11:58:32;22.10;99.90
28177;DHT22;15461;41.652;9.378;2022-09-28T12:04:38;22.10;99.90
28177;DHT22;15461;41.652;9.378;2022-09-28T12:10:20;22.00;99.90
28177;DHT22;15461;41.652;9.378;2022-09-28T12:18:10;21.40;99.90
28177;DHT22;15461;41.652;9.378;2022-09-28T12:20:43;21.20;99.90
28177;DHT22;15461;41.652;9.378;2022-09-28T12:25:42;20.80;99.90
28177;DHT22;15461;41.652;9.378;2022-09-28T12:28:50;20.70;99.90
28177;DHT22;15461;41.652;9.378;2022-09-28T12:31:30;20.70;99.90
28177;DHT22;15461;41.652;9.378;2022-09-28T12:33:59;20.60;99.90
28177;DHT22;15461;41.652;9.378;2022-09-28T12:50:32;20.40;99.90
28177;DHT22;15461;41.652;9.378;2022-09-28T12:56:12;20.50;99.90
28177;DHT22;15461;41.652;9.378;2022-09-28T12:59:04;20.60;99.90
28177;DHT22;15461;41.652;9.378;2022-09-28T13:07:56;21.10;99.90
28177;DHT22;15461;41.652;9.378;2022-09-28T13:21:42;21.30;99.90
28177;DHT22;15461;41.652;9.378;2022-09-28T13:24:18;21.40;99.90
28177;DHT22;15461;41.652;9.378;2022-09-28T13:26:49;21.40;99.90
28177;DHT22;15461;41.652;9.378;2022-09-28T13:29:17;21.70;99.90
28177;DHT22;15461;41.652;9.378;2022-09-28T13:31:46;22.10;99.90
28177;DHT22;15461;41.652;9.378;2022-09-28T13:34:49;22.30;99.90
28177;DHT22;15461;41.652;9.378;2022-09-28T13:50:47;22.80;99.90
28177;DHT22;15461;41.652;9.378;2022-09-28T13:56:21;22.50;99.90
28177;DHT22;15461;41.652;9.378;2022-09-28T13:58:57;22.20;99.90
28177;DHT22;15461;41.652;9.378;2022-09-28T14:04:23;21.50;99.90
28177;DHT22;15461;41.652;9.378;2022-09-28T14:06:55;21.10;99.90
28177;DHT22;15461;41.652;9.378;2022-09-28T14:11:59;20.70;99.90
28177;DHT22;15461;41.652;9.378;2022-09-28T14:14:28;20.60;99.90
28177;DHT22;15461;41.652;9.378;2022-09-28T14:19:55;20.70;99.90
28177;DHT22;15461;41.652;9.378;2022-09-28T14:25:26;21.00;99.90
28177;DHT22;15461;41.652;9.378;2022-09-28T14:33:30;21.10;99.90
28177;DHT22;15461;41.652;9.378;2022-09-28T14:36:04;21.10;99.90
28177;DHT22;15461;41.652;9.378;2022-09-28T14:38:31;21.10;99.90
28177;DHT22;15461;41.652;9.378;2022-09-28T14:41:46;21.20;99.90
28177;DHT22;15461;41.652;9.378;2022-09-28T14:44:13;21.40;99.90
28177;DHT22;15461;41.652;9.378;2022-09-28T14:46:41;21.50;99.90
28177;DHT22;15461;41.652;9.378;2022-09-28T14:51:56;21.60;99.90
28177;DHT22;15461;41.652;9.378;2022-09-28T14:54:37;21.70;99.90
28177;DHT22;15461;41.652;9.378;2022-09-28T14:57:16;21.70;99.90
28177;DHT22;15461;41.652;9.378;2022-09-28T14:59:43;21.80;99.90
28177;DHT22;15461;41.652;9.378;2022-09-28T15:04:44;21.70;99.90
28177;DHT22;15461;41.652;9.378;2022-09-28T15:07:29;21.70;99.90
28177;DHT22;15461;41.652;9.378;2022-09-28T15:10:31;21.80;99.90
28177;DHT22;15461;41.652;9.378;2022-09-28T15:12:59;21.80;99.90
28177;DHT22;15461;41.652;9.378;2022-09-28T15:15:33;21.90;99.90
28177;DHT22;15461;41.652;9.378;2022-09-28T15:20:53;22.00;99.90
28177;DHT22;15461;41.652;9.378;2022-09-28T15:23:36;22.20;99.90
28177;DHT22;15461;41.652;9.378;2022-09-28T15:26:06;22.30;99.90
28177;DHT22;15461;41.652;9.378;2022-09-28T15:28:42;22.40;99.90
28177;DHT22;15461;41.652;9.378;2022-09-28T15:31:18;22.50;99.90
28177;DHT22;15461;41.652;9.378;2022-09-28T15:33:44;22.50;99.90
28177;DHT22;15461;41.652;9.378;2022-09-28T15:36:31;22.40;99.90
28177;DHT22;15461;41.652;9.378;2022-09-28T15:39:11;22.10;99.90
28177;DHT22;15461;41.652;9.378;2022-09-28T15:41:39;21.80;99.90
28177;DHT22;15461;41.652;9.378;2022-09-28T15:46:42;21.40;99.90
28177;DHT22;15461;41.652;9.378;2022-09-28T15:49:24;21.20;99.90
28177;DHT22;15461;41.652;9.378;2022-09-28T15:51:53;21.10;99.90
28177;DHT22;15461;41.652;9.378;2022-09-28T15:54:26;21.10;99.90
28177;DHT22;15461;41.652;9.378;2022-09-28T15:56:58;21.00;99.90
28177;DHT22;15461;41.652;9.378;2022-09-28T15:59:38;21.00;99.90
28177;DHT22;15461;41.652;9.378;2022-09-28T16:15:06;20.70;99.90
28177;DHT22;15461;41.652;9.378;2022-09-28T16:17:36;20.80;99.90
28177;DHT22;15461;41.652;9.378;2022-09-28T16:20:27;20.80;99.90
28177;DHT22;15461;41.652;9.378;2022-09-28T16:22:59;20.80;99.90
28177;DHT22;15461;41.652;9.378;2022-09-28T16:25:32;20.80;99.90
28177;DHT22;15461;41.652;9.378;2022-09-28T16:28:00;20.80;99.90
28177;DHT22;15461;41.652;9.378;2022-09-28T16:30:31;20.90;99.90
28177;DHT22;15461;41.652;9.378;2022-09-28T16:33:02;20.90;99.90
28177;DHT22;15461;41.652;9.378;2022-09-28T16:38:15;20.90;99.90
28177;DHT22;15461;41.652;9.378;2022-09-28T16:40:51;20.90;99.90
28177;DHT22;15461;41.652;9.378;2022-09-28T16:43:29;20.90;99.90
28177;DHT22;15461;41.652;9.378;2022-09-28T16:46:09;20.90;99.90
28177;DHT22;15461;41.652;9.378;2022-09-28T16:48:40;20.90;99.90
28177;DHT22;15461;41.652;9.378;2022-09-28T16:51:17;20.90;99.90
28177;DHT22;15461;41.652;9.378;2022-09-28T16:53:44;20.90;99.90
28177;DHT22;15461;41.652;9.378;2022-09-28T16:56:30;20.80;99.90
28177;DHT22;15461;41.652;9.378;2022-09-28T16:58:56;20.90;99.90
28177;DHT22;15461;41.652;9.378;2022-09-28T17:01:22;20.80;99.90
28177;DHT22;15461;41.652;9.378;2022-09-28T17:03:48;20.80;99.90
28177;DHT22;15461;41.652;9.378;2022-09-28T17:06:16;20.80;99.90
28177;DHT22;15461;41.652;9.378;2022-09-28T17:08:43;20.70;99.90
28177;DHT22;15461;41.652;9.378;2022-09-28T17:11:14;20.80;99.90
28177;DHT22;15461;41.652;9.378;2022-09-28T17:13:41;20.70;99.90
28177;DHT22;15461;41.652;9.378;2022-09-28T17:16:21;20.70;99.90
28177;DHT22;15461;41.652;9.378;2022-09-28T17:18:48;20.70;99.90
28177;DHT22;15461;41.652;9.378;2022-09-28T17:21:19;20.70;99.90
28177;DHT22;15461;41.652;9.378;2022-09-28T17:23:47;20.70;99.90
28177;DHT22;15461;41.652;9.378;2022-09-28T17:28:48;20.70;99.90
28177;DHT22;15461;41.652;9.378;2022-09-28T17:31:15;20.70;99.90
28177;DHT22;15461;41.652;9.378;2022-09-28T17:33:41;20.70;99.90
28177;DHT22;15461;41.652;9.378;2022-09-28T17:36:14;20.60;99.90
28177;DHT22;15461;41.652;9.378;2022-09-28T17:38:40;20.60;99.90
28177;DHT22;15461;41.652;9.378;2022-09-28T17:41:11;20.60;99.90
28177;DHT22;15461;41.652;9.378;2022-09-28T17:43:38;20.60;99.90
28177;DHT22;15461;41.652;9.378;2022-09-28T17:46:33;20.60;99.90
28177;DHT22;15461;41.652;9.378;2022-09-28T17:49:00;20.60;99.90
28177;DHT22;15461;41.652;9.378;2022-09-28T17:51:29;20.60;99.90
28177;DHT22;15461;41.652;9.378;2022-09-28T17:53:56;20.60;99.90
28177;DHT22;15461;41.652;9.378;2022-09-28T17:56:23;20.60;99.90
28177;DHT22;15461;41.652;9.378;2022-09-28T17:58:50;20.60;99.90
28177;DHT22;15461;41.652;9.378;2022-09-28T18:01:17;20.70;99.90
28177;DHT22;15461;41.652;9.378;2022-09-28T18:03:43;20.70;99.90
28177;DHT22;15461;41.652;9.378;2022-09-28T18:06:14;20.70;99.90
28177;DHT22;15461;41.652;9.378;2022-09-28T18:08:41;20.70;99.90
28177;DHT22;15461;41.652;9.378;2022-09-28T18:11:09;20.70;99.90
28177;DHT22;15461;41.652;9.378;2022-09-28T18:13:35;20.70;99.90
28177;DHT22;15461;41.652;9.378;2022-09-28T18:16:01;20.70;99.90
28177;DHT22;15461;41.652;9.378;2022-09-28T18:18:27;20.60;99.90
28177;DHT22;15461;41.652;9.378;2022-09-28T18:20:53;20.60;99.90
28177;DHT22;15461;41.652;9.378;2022-09-28T18:23:19;20.70;99.90
28177;DHT22;15461;41.652;9.378;2022-09-28T18:25:46;20.70;99.90
28177;DHT22;15461;41.652;9.378;2022-09-28T18:28:12;20.70;99.90
28177;DHT22;15461;41.652;9.378;2022-09-28T18:30:43;20.70;99.90
28177;DHT22;15461;41.652;9.378;2022-09-28T18:33:11;20.70;99.90
28177;DHT22;15461;41.652;9.378;2022-09-28T18:35:37;20.60;99.90
28177;DHT22;15461;41.652;9.378;2022-09-28T18:38:04;20.60;99.90
28177;DHT22;15461;41.652;9.378;2022-09-28T18:40:32;20.70;99.90
28177;DHT22;15461;41.652;9.378;2022-09-28T18:42:58;20.80;99.90
28177;DHT22;15461;41.652;9.378;2022-09-28T18:45:24;20.80;99.90
28177;DHT22;15461;41.652;9.378;2022-09-28T18:47:50;20.90;99.90
28177;DHT22;15461;41.652;9.378;2022-09-28T18:50:16;20.90;99.90
28177;DHT22;15461;41.652;9.378;2022-09-28T18:52:43;21.00;99.90
28177;DHT22;15461;41.652;9.378;2022-09-28T18:55:10;21.00;99.90
28177;DHT22;15461;41.652;9.378;2022-09-28T18:57:38;20.90;99.90
28177;DHT22;15461;41.652;9.378;2022-09-28T19:00:08;20.80;99.90
28177;DHT22;15461;41.652;9.378;2022-09-28T19:02:34;20.80;99.90
28177;DHT22;15461;41.652;9.378;2022-09-28T19:05:00;20.80;99.90
28177;DHT22;15461;41.652;9.378;2022-09-28T19:07:27;20.90;99.90
28177;DHT22;15461;41.652;9.378;2022-09-28T19:09:53;20.90;99.90
28177;DHT22;15461;41.652;9.378;2022-09-28T19:12:19;20.90;99.90
28177;DHT22;15461;41.652;9.378;2022-09-28T19:14:45;20.90;99.90
28177;DHT22;15461;41.652;9.378;2022-09-28T19:17:11;20.90;99.90
28177;DHT22;15461;41.652;9.378;2022-09-28T19:19:37;20.90;99.90
28177;DHT22;15461;41.652;9.378;2022-09-28T19:22:03;20.90;99.90
28177;DHT22;15461;41.652;9.378;2022-09-28T19:24:29;20.90;99.90